Tropical Cyclones
[Index]
Main Index Home Page Stock Weather Photos Extreme Storms Discussion Storm News and Storm Chasing Reports Tropical Cyclones / Hurricanes / Typhoons Weather Data and Links Wild Fires / Bushfires Weather Observation Techniques Weather Picture Catalogue Tornado Pictures and Reports Stock Video Footage and DVDs for sale
Season 1959-1960 Tropical Cyclone 196008 Track Map
Season 1959-1960 Summaries: [BoM-AU] [JTWC-AU] [JTWC-SIO] [JTWC-SPAC] [JTWC-SH]
<<- Previous TC | JTWC 1959-1960 Season | Next TC ->>

click for intensity scale information  Lat/long Grid: Show Hide

 Date Labels: Show Hide

Joint Typhoon Warning Centre Cyclone Data

Name: 196008
Number: 378 / 6008

11 Jan 1960 18:00 UTC to 22 Jan 1960 06:00 UTC

    date/time    lat    long     hPa   cat  kts
1960-01-11 18   12.4    81.0                              
1960-01-12 00   12.3    80.5                              
1960-01-12 06   12.3    80.0                              
1960-01-12 12   12.3    79.5                              
1960-01-12 18   12.3    79.0                              
1960-01-13 00   12.3    78.5                              
1960-01-13 06   12.3    77.8                              
1960-01-13 12   12.6    76.5                              
1960-01-13 18   13.1    75.0                              
1960-01-14 00   13.5    73.7                              
1960-01-14 06   13.9    72.4                              
1960-01-14 12   14.3    71.2                              
1960-01-14 18   14.5    70.0                              
1960-01-15 00   14.6    68.5                              
1960-01-15 06   14.7    67.0                              
1960-01-15 12   14.8    66.0                              
1960-01-15 18   14.8    65.0                              
1960-01-16 00   14.8    63.8                              
1960-01-16 06   14.8    62.7                              
1960-01-16 12   14.8    62.1                              
1960-01-16 18   14.8    61.6                              
1960-01-17 00   14.9    61.1                              
1960-01-17 06   15.0    60.6                              
1960-01-17 12   15.1    60.1                              
1960-01-17 18   15.3    59.6                              
1960-01-18 00   15.5    59.2                              
1960-01-18 06   15.9    58.9                              
1960-01-18 12   16.5    58.2                              
1960-01-18 18   17.3    57.5                              
1960-01-19 00   18.1    57.2                              
1960-01-19 06   19.0    57.0                              
1960-01-19 12   20.1    56.8                              
1960-01-19 18   21.2    56.6                              
1960-01-20 00   22.3    56.4                              
1960-01-20 06   23.6    56.4                              
1960-01-20 12   25.5    57.1                              
1960-01-20 18   27.5    58.3                              
1960-01-21 00   29.1    59.6                              
1960-01-21 06   30.5    61.2                              
1960-01-21 12   31.8    63.3                              
1960-01-21 18   33.0    65.4                              
1960-01-22 00   34.0    67.5                              
1960-01-22 06   34.8    69.7                              
Winds are 1-min average.

Tropical cyclone tracks developed by Michael Bath using data from the Joint Typhoon Warning Centre Best Tracks and Google Maps.


[Australian Severe Weather index] [Copyright Notice] [Email Contacts] [Search This Site] [Privacy Policy]
Document: tropical_cyclone_196008.htm Updated: 18 September 2016